createdAt,value
2022-07-25T00:00:01.391Z,0
2022-07-25T00:01:01.398Z,0
2022-07-25T00:02:01.369Z,0
2022-07-25T00:03:01.359Z,0
2022-07-25T00:04:01.358Z,0
2022-07-25T00:05:01.361Z,0
2022-07-25T00:06:01.329Z,0
2022-07-25T00:07:01.330Z,0
2022-07-25T00:08:01.301Z,0
2022-07-25T00:09:01.297Z,0
2022-07-25T00:10:01.288Z,0
2022-07-25T00:11:01.274Z,0
2022-07-25T00:12:01.265Z,0
2022-07-25T00:13:01.265Z,0
2022-07-25T00:14:01.238Z,0
2022-07-25T00:15:01.229Z,0
2022-07-25T00:16:01.219Z,0
2022-07-25T00:17:01.218Z,0
2022-07-25T00:18:01.197Z,0
2022-07-25T00:19:01.195Z,0
2022-07-25T00:20:01.179Z,0
2022-07-25T00:21:01.181Z,0
2022-07-25T00:22:01.156Z,0
2022-07-25T00:23:01.154Z,0
2022-07-25T00:24:01.138Z,0
2022-07-25T00:25:01.128Z,0
2022-07-25T00:26:01.113Z,0
2022-07-25T00:27:01.104Z,0
2022-07-25T00:28:01.090Z,0
2022-07-25T00:29:01.080Z,0
2022-07-25T00:30:01.072Z,0
2022-07-25T00:31:01.069Z,0
2022-07-25T00:32:01.052Z,0
2022-07-25T00:33:01.053Z,0
2022-07-25T00:34:01.031Z,0
2022-07-25T00:35:01.015Z,0
2022-07-25T00:36:01.012Z,0
2022-07-25T00:37:01.000Z,0
2022-07-25T00:38:00.990Z,0
2022-07-25T00:39:01.023Z,0
2022-07-25T00:40:00.968Z,0
2022-07-25T00:41:00.954Z,0
2022-07-25T00:42:00.955Z,0
2022-07-25T00:43:00.960Z,0
2022-07-25T00:44:00.924Z,0
2022-07-25T00:45:00.917Z,0
2022-07-25T00:46:00.907Z,0
2022-07-25T00:47:00.894Z,0
2022-07-25T00:48:00.882Z,0
2022-07-25T00:49:00.875Z,0
2022-07-25T00:50:00.869Z,0
2022-07-25T00:51:00.847Z,0
2022-07-25T00:52:00.852Z,0
2022-07-25T00:53:00.845Z,0
2022-07-25T00:54:00.840Z,0
2022-07-25T00:55:00.832Z,0
2022-07-25T00:56:00.801Z,0
2022-07-25T00:57:00.785Z,0
2022-07-25T00:58:00.777Z,0
2022-07-25T00:59:00.762Z,0
2022-07-25T01:00:00.756Z,0
2022-07-25T01:01:00.739Z,0
2022-07-25T01:02:00.729Z,0
2022-07-25T01:03:00.720Z,0
2022-07-25T01:04:00.717Z,0
2022-07-25T01:05:00.718Z,0
2022-07-25T01:06:00.712Z,0
2022-07-25T01:07:00.680Z,0
2022-07-25T01:08:00.675Z,0
2022-07-25T01:09:00.673Z,0
2022-07-25T01:10:00.648Z,0
2022-07-25T01:11:00.634Z,0
2022-07-25T01:12:00.627Z,0
2022-07-25T01:13:00.613Z,0
2022-07-25T01:14:00.603Z,0
2022-07-25T01:15:00.597Z,0
2022-07-25T01:16:00.583Z,0
2022-07-25T01:17:00.567Z,0
2022-07-25T01:18:00.560Z,0
2022-07-25T01:19:00.553Z,0
2022-07-25T01:20:00.562Z,0
2022-07-25T01:21:00.529Z,0
2022-07-25T01:22:00.523Z,0
2022-07-25T01:23:00.506Z,0
2022-07-25T01:24:00.497Z,0
2022-07-25T01:25:00.480Z,0
2022-07-25T01:26:00.490Z,0
2022-07-25T01:27:00.462Z,0
2022-07-25T01:28:00.451Z,0
2022-07-25T01:29:00.441Z,0
2022-07-25T01:30:00.431Z,0
2022-07-25T01:31:00.436Z,0
2022-07-25T01:32:00.407Z,0
2022-07-25T01:33:00.397Z,0
2022-07-25T01:34:00.385Z,0
2022-07-25T01:35:00.384Z,0
2022-07-25T01:36:00.368Z,0
2022-07-25T01:37:00.354Z,0
2022-07-25T01:38:00.344Z,0
2022-07-25T01:39:00.330Z,0
2022-07-25T01:40:00.323Z,0
2022-07-25T01:41:00.316Z,0
2022-07-25T01:42:00.309Z,0
2022-07-25T01:43:00.286Z,0
2022-07-25T01:44:00.278Z,0
2022-07-25T01:45:00.270Z,0
2022-07-25T01:46:00.257Z,0
2022-07-25T01:47:00.248Z,0
2022-07-25T01:48:00.236Z,0
2022-07-25T01:49:00.230Z,0
2022-07-25T01:50:00.210Z,0
2022-07-25T01:51:00.202Z,0
2022-07-25T01:52:00.189Z,0
2022-07-25T01:53:00.178Z,0
2022-07-25T01:54:00.175Z,0
2022-07-25T01:55:00.162Z,0
2022-07-25T01:56:00.149Z,0
2022-07-25T01:57:00.133Z,0
2022-07-25T01:58:00.122Z,0
2022-07-25T01:59:00.120Z,0
2022-07-25T02:00:00.106Z,0
2022-07-25T02:01:00.095Z,0
2022-07-25T02:02:00.088Z,0
2022-07-25T02:03:00.088Z,0
2022-07-25T02:04:00.057Z,0
2022-07-25T02:05:00.049Z,0
2022-07-25T02:06:00.038Z,0
2022-07-25T02:07:00.029Z,0
2022-07-25T02:08:00.014Z,0
2022-07-25T02:09:00.006Z,0
2022-07-25T02:09:59.994Z,0
2022-07-25T02:10:59.989Z,0
2022-07-25T02:11:59.986Z,0
2022-07-25T02:12:59.961Z,0
2022-07-25T02:13:59.960Z,0
2022-07-25T02:14:59.936Z,0
2022-07-25T02:15:59.930Z,0
2022-07-25T02:16:59.920Z,0
2022-07-25T02:17:59.910Z,0
2022-07-25T02:18:59.902Z,0
2022-07-25T02:19:59.889Z,0
2022-07-25T02:20:59.874Z,0
2022-07-25T02:21:59.881Z,0
2022-07-25T02:22:59.853Z,0
2022-07-25T02:23:59.848Z,0
2022-07-25T02:24:59.829Z,0
2022-07-25T02:25:59.823Z,0
2022-07-25T02:26:59.810Z,0
2022-07-25T02:27:59.797Z,0
2022-07-25T02:28:59.793Z,0
2022-07-25T02:29:59.787Z,0
2022-07-25T02:30:59.769Z,0
2022-07-25T02:31:59.770Z,0
2022-07-25T02:32:59.741Z,0
2022-07-25T02:33:59.734Z,0
2022-07-25T02:34:59.729Z,0
2022-07-25T02:35:59.712Z,0
2022-07-25T02:36:59.722Z,0
2022-07-25T02:37:59.692Z,0
2022-07-25T02:38:59.683Z,0
2022-07-25T02:39:59.667Z,0
2022-07-25T02:40:59.656Z,0
2022-07-25T02:41:59.647Z,0
2022-07-25T02:42:59.653Z,0
2022-07-25T02:43:59.624Z,0
2022-07-25T02:44:59.620Z,0
2022-07-25T02:45:59.605Z,0
2022-07-25T02:46:59.590Z,0
2022-07-25T02:47:59.577Z,0
2022-07-25T02:48:59.573Z,0
2022-07-25T02:49:59.558Z,0
2022-07-25T02:50:59.551Z,0
2022-07-25T02:51:59.545Z,0
2022-07-25T02:52:59.528Z,0
2022-07-25T02:53:59.532Z,0
2022-07-25T02:54:59.510Z,0
2022-07-25T02:55:59.493Z,0
2022-07-25T02:56:59.494Z,0
2022-07-25T02:57:59.471Z,0
2022-07-25T02:58:59.468Z,0
2022-07-25T02:59:59.450Z,0
2022-07-25T03:00:59.437Z,0
2022-07-25T03:01:59.427Z,0
2022-07-25T03:02:59.416Z,0
2022-07-25T03:03:59.408Z,0
2022-07-25T03:04:59.398Z,0
2022-07-25T03:05:59.386Z,0
2022-07-25T03:06:59.371Z,0
2022-07-25T03:07:59.360Z,0
2022-07-25T03:08:59.350Z,0
2022-07-25T03:09:59.343Z,0
2022-07-25T03:10:59.339Z,0
2022-07-25T03:11:59.322Z,0
2022-07-25T03:12:59.307Z,0
2022-07-25T03:13:59.295Z,0
2022-07-25T03:14:59.292Z,0
2022-07-25T03:15:59.273Z,0
2022-07-25T03:16:59.267Z,0
2022-07-25T03:17:59.256Z,0
2022-07-25T03:18:59.245Z,0
2022-07-25T03:19:59.233Z,0
2022-07-25T03:20:59.220Z,0
2022-07-25T03:21:59.207Z,0
2022-07-25T03:22:59.208Z,0
2022-07-25T03:23:59.203Z,0
2022-07-25T03:24:59.176Z,0
2022-07-25T03:25:59.171Z,0
2022-07-25T03:26:59.164Z,0
2022-07-25T03:27:59.147Z,0
2022-07-25T03:28:59.146Z,0
2022-07-25T03:29:59.134Z,0
2022-07-25T03:30:59.110Z,0
2022-07-25T03:31:59.100Z,0
2022-07-25T03:32:59.105Z,0
2022-07-25T03:33:59.091Z,0
2022-07-25T03:34:59.077Z,0
2022-07-25T03:35:59.080Z,0
2022-07-25T03:36:59.050Z,0
2022-07-25T03:37:59.043Z,0
2022-07-25T03:38:59.025Z,0
2022-07-25T03:39:59.020Z,0
2022-07-25T03:40:59.012Z,0
2022-07-25T03:41:59.015Z,0
2022-07-25T03:42:58.985Z,0
2022-07-25T03:43:58.983Z,5.62
2022-07-25T03:44:58.992Z,5.62
2022-07-25T03:45:58.977Z,5.62
2022-07-25T03:46:58.947Z,5.62
2022-07-25T03:47:58.946Z,5.62
2022-07-25T03:48:58.926Z,5.62
2022-07-25T03:50:06.511Z,5.62
2022-07-25T03:51:06.482Z,5.62
2022-07-25T03:52:06.486Z,5.62
2022-07-25T03:53:06.528Z,5.62
2022-07-25T03:54:06.499Z,5.62
2022-07-25T03:55:06.441Z,5.62
2022-07-25T03:56:06.480Z,5.62
2022-07-25T03:57:06.487Z,11.25
2022-07-25T03:58:07.730Z,11.25
2022-07-25T03:59:06.427Z,11.25
2022-07-25T04:00:06.506Z,11.25
2022-07-25T04:01:06.387Z,11.25
2022-07-25T04:02:06.381Z,11.25
2022-07-25T04:02:58.790Z,11.25
2022-07-25T04:03:58.783Z,11.25
2022-07-25T04:04:58.767Z,11.25
2022-07-25T04:06:06.359Z,11.25
2022-07-25T04:06:58.742Z,11.25
2022-07-25T04:08:06.368Z,11.25
2022-07-25T04:09:06.305Z,16.88
2022-07-25T04:09:58.716Z,16.88
2022-07-25T04:10:58.694Z,16.88
2022-07-25T04:11:58.709Z,16.88
2022-07-25T04:12:58.692Z,16.88
2022-07-25T04:13:58.664Z,16.88
2022-07-25T04:14:58.654Z,16.88
2022-07-25T04:15:58.650Z,16.88
2022-07-25T04:17:06.240Z,16.88
2022-07-25T04:18:07.222Z,16.88
2022-07-25T04:19:06.203Z,16.88
2022-07-25T04:20:06.178Z,16.88
2022-07-25T04:21:06.174Z,22.5
2022-07-25T04:22:07.200Z,22.5
2022-07-25T04:23:06.223Z,22.5
2022-07-25T04:24:06.157Z,22.5
2022-07-25T04:24:58.558Z,22.5
2022-07-25T04:25:58.539Z,22.5
2022-07-25T04:26:58.533Z,22.5
2022-07-25T04:27:58.516Z,22.5
2022-07-25T04:28:58.513Z,22.5
2022-07-25T04:29:58.519Z,22.5
2022-07-25T04:30:58.519Z,22.5
2022-07-25T04:31:58.480Z,28.12
2022-07-25T04:32:58.466Z,28.12
2022-07-25T04:33:58.463Z,28.12
2022-07-25T04:34:58.462Z,28.12
2022-07-25T04:35:58.437Z,28.12
2022-07-25T04:36:58.476Z,28.12
2022-07-25T04:37:58.413Z,28.12
2022-07-25T04:38:58.400Z,28.12
2022-07-25T04:39:58.393Z,28.12
2022-07-25T04:40:58.393Z,28.12
2022-07-25T04:42:05.952Z,28.12
2022-07-25T04:42:58.392Z,33.75
2022-07-25T04:43:58.357Z,33.75
2022-07-25T04:44:58.343Z,33.75
2022-07-25T04:45:58.337Z,33.75
2022-07-25T04:46:58.334Z,33.75
2022-07-25T04:47:58.313Z,33.75
2022-07-25T04:48:58.316Z,33.75
2022-07-25T04:49:58.295Z,33.75
2022-07-25T04:50:58.295Z,33.75
2022-07-25T04:51:58.280Z,33.75
2022-07-25T04:52:58.262Z,33.75
2022-07-25T04:53:58.250Z,39.38
2022-07-25T04:54:58.277Z,39.38
2022-07-25T04:55:58.224Z,39.38
2022-07-25T04:56:58.211Z,39.38
2022-07-25T04:57:58.205Z,39.38
2022-07-25T04:58:58.217Z,39.38
2022-07-25T04:59:58.184Z,39.38
2022-07-25T05:00:58.178Z,39.38
2022-07-25T05:01:58.166Z,45
2022-07-25T05:02:58.148Z,45
2022-07-25T05:03:58.146Z,45
2022-07-25T05:04:58.141Z,45
2022-07-25T05:05:58.145Z,45
2022-07-25T05:06:58.106Z,45
2022-07-25T05:07:58.112Z,45
2022-07-25T05:08:58.097Z,50.62
2022-07-25T05:09:58.095Z,50.62
2022-07-25T05:10:58.079Z,50.62
2022-07-25T05:11:58.056Z,50.62
2022-07-25T05:12:58.051Z,50.62
2022-07-25T05:13:58.065Z,50.62
2022-07-25T05:14:58.101Z,50.62
2022-07-25T05:15:58.031Z,56.25
2022-07-25T05:16:58.024Z,56.25
2022-07-25T05:17:57.997Z,56.25
2022-07-25T05:18:57.985Z,56.25
2022-07-25T05:19:57.976Z,56.25
2022-07-25T05:20:57.961Z,56.25
2022-07-25T05:21:57.954Z,61.88
2022-07-25T05:22:57.981Z,61.88
2022-07-25T05:23:57.938Z,61.88
2022-07-25T05:24:57.968Z,61.88
2022-07-25T05:25:57.908Z,61.88
2022-07-25T05:26:57.908Z,67.5
2022-07-25T05:27:57.893Z,67.5
2022-07-25T05:28:57.892Z,67.5
2022-07-25T05:29:57.874Z,67.5
2022-07-25T05:30:57.927Z,67.5
2022-07-25T05:31:57.855Z,67.5
2022-07-25T05:32:57.834Z,73.12
2022-07-25T05:33:57.862Z,73.12
2022-07-25T05:34:57.821Z,73.12
2022-07-25T05:35:57.805Z,73.12
2022-07-25T05:36:57.797Z,73.12
2022-07-25T05:37:57.825Z,78.75
2022-07-25T05:38:57.769Z,78.75
2022-07-25T05:39:57.760Z,78.75
2022-07-25T05:40:57.766Z,78.75
2022-07-25T05:41:57.741Z,84.38
2022-07-25T05:42:57.737Z,84.38
2022-07-25T05:43:57.741Z,84.38
2022-07-25T05:44:57.706Z,90
2022-07-25T05:45:57.698Z,90
2022-07-25T05:46:57.681Z,90
2022-07-25T05:47:57.703Z,90
2022-07-25T05:48:57.666Z,90
2022-07-25T05:49:57.668Z,90
2022-07-25T05:50:57.639Z,95.62
2022-07-25T05:51:57.628Z,95.62
2022-07-25T05:52:57.642Z,101.25
2022-07-25T05:53:57.601Z,101.25
2022-07-25T05:54:57.599Z,106.88
2022-07-25T05:55:57.598Z,101.25
2022-07-25T05:56:57.573Z,106.88
2022-07-25T05:57:57.570Z,106.88
2022-07-25T05:58:57.552Z,112.5
2022-07-25T05:59:57.541Z,112.5
2022-07-25T06:00:57.532Z,118.12
2022-07-25T06:01:57.519Z,118.12
2022-07-25T06:02:57.517Z,123.75
2022-07-25T06:03:57.514Z,123.75
2022-07-25T06:04:57.485Z,123.75
2022-07-25T06:05:57.482Z,123.75
2022-07-25T06:06:57.469Z,129.38
2022-07-25T06:07:57.453Z,129.38
2022-07-25T06:08:57.446Z,129.38
2022-07-25T06:09:57.439Z,129.38
2022-07-25T06:10:57.428Z,135
2022-07-25T06:11:57.414Z,123.75
2022-07-25T06:12:57.432Z,129.38
2022-07-25T06:13:57.394Z,123.75
2022-07-25T06:14:57.394Z,106.88
2022-07-25T06:15:57.385Z,118.12
2022-07-25T06:16:57.359Z,106.88
2022-07-25T06:17:57.354Z,95.62
2022-07-25T06:18:57.353Z,90
2022-07-25T06:19:57.339Z,84.38
2022-07-25T06:20:57.320Z,90
2022-07-25T06:21:57.324Z,118.12
2022-07-25T06:22:57.303Z,112.5
2022-07-25T06:23:57.289Z,106.88
2022-07-25T06:24:57.283Z,123.75
2022-07-25T06:25:57.268Z,101.25
2022-07-25T06:26:57.273Z,101.25
2022-07-25T06:27:57.257Z,106.88
2022-07-25T06:28:57.236Z,112.5
2022-07-25T06:29:57.227Z,95.62
2022-07-25T06:30:57.231Z,90
2022-07-25T06:31:57.203Z,84.38
2022-07-25T06:32:57.200Z,101.25
2022-07-25T06:33:57.183Z,123.75
2022-07-25T06:34:57.202Z,118.12
2022-07-25T06:35:57.171Z,135
2022-07-25T06:36:57.155Z,146.25
2022-07-25T06:37:57.151Z,151.88
2022-07-25T06:38:57.148Z,157.5
2022-07-25T06:39:57.140Z,157.5
2022-07-25T06:40:57.115Z,151.88
2022-07-25T06:41:57.105Z,157.5
2022-07-25T06:42:57.089Z,157.5
2022-07-25T06:43:57.079Z,157.5
2022-07-25T06:44:57.180Z,157.5
2022-07-25T06:45:57.077Z,157.5
2022-07-25T06:46:57.046Z,157.5
2022-07-25T06:47:57.038Z,157.5
2022-07-25T06:48:57.053Z,146.25
2022-07-25T06:49:57.029Z,146.25
2022-07-25T06:50:57.014Z,151.88
2022-07-25T06:51:56.991Z,157.5
2022-07-25T06:52:56.978Z,151.88
2022-07-25T06:53:56.992Z,151.88
2022-07-25T06:54:57.024Z,151.88
2022-07-25T06:55:56.954Z,146.25
2022-07-25T06:56:56.950Z,140.62
2022-07-25T06:57:56.954Z,140.62
2022-07-25T06:58:56.920Z,135
2022-07-25T06:59:56.915Z,140.62
2022-07-25T07:00:56.930Z,140.62
2022-07-25T07:01:56.925Z,140.62
2022-07-25T07:02:56.887Z,151.88
2022-07-25T07:03:56.899Z,151.88
2022-07-25T07:04:57.032Z,157.5
2022-07-25T07:05:56.892Z,168.75
2022-07-25T07:06:56.841Z,157.5
2022-07-25T07:07:56.937Z,157.5
2022-07-25T07:08:56.836Z,146.25
2022-07-25T07:09:56.821Z,151.88
2022-07-25T07:10:56.798Z,151.88
2022-07-25T07:11:56.825Z,146.25
2022-07-25T07:12:56.812Z,146.25
2022-07-25T07:13:56.919Z,151.88
2022-07-25T07:14:56.775Z,151.88
2022-07-25T07:15:56.744Z,151.88
2022-07-25T07:16:56.734Z,151.88
2022-07-25T07:17:56.734Z,146.25
2022-07-25T07:18:56.719Z,146.25
2022-07-25T07:19:56.719Z,146.25
2022-07-25T07:20:56.693Z,129.38
2022-07-25T07:21:56.679Z,140.62
2022-07-25T07:22:56.669Z,157.5
2022-07-25T07:23:56.663Z,191.25
2022-07-25T07:24:56.646Z,202.5
2022-07-25T07:25:56.636Z,191.25
2022-07-25T07:26:56.633Z,163.12
2022-07-25T07:27:56.655Z,196.88
2022-07-25T07:28:56.616Z,208.12
2022-07-25T07:29:56.599Z,202.5
2022-07-25T07:30:56.594Z,180
2022-07-25T07:31:56.572Z,208.12
2022-07-25T07:32:56.576Z,213.75
2022-07-25T07:33:56.552Z,168.75
2022-07-25T07:34:56.559Z,180
2022-07-25T07:35:56.534Z,163.12
2022-07-25T07:36:56.516Z,157.5
2022-07-25T07:37:56.588Z,157.5
2022-07-25T07:38:56.506Z,163.12
2022-07-25T07:39:56.492Z,168.75
2022-07-25T07:40:56.489Z,168.75
2022-07-25T07:41:56.465Z,191.25
2022-07-25T07:42:56.453Z,191.25
2022-07-25T07:43:56.445Z,202.5
2022-07-25T07:44:56.442Z,230.62
2022-07-25T07:45:56.435Z,213.75
2022-07-25T07:46:56.452Z,213.75
2022-07-25T07:47:56.406Z,196.88
2022-07-25T07:48:56.402Z,174.38
2022-07-25T07:49:56.382Z,174.38
2022-07-25T07:50:56.375Z,185.62
2022-07-25T07:51:56.368Z,191.25
2022-07-25T07:52:56.358Z,196.88
2022-07-25T07:53:56.349Z,191.25
2022-07-25T07:54:56.341Z,191.25
2022-07-25T07:55:56.326Z,180
2022-07-25T07:56:56.316Z,174.38
2022-07-25T07:57:56.314Z,191.25
2022-07-25T07:58:56.297Z,191.25
2022-07-25T07:59:56.289Z,168.75
2022-07-25T08:00:56.299Z,174.38
2022-07-25T08:01:56.264Z,202.5
2022-07-25T08:02:56.255Z,180
2022-07-25T08:03:56.303Z,208.12
2022-07-25T08:04:56.420Z,208.12
2022-07-25T08:05:56.253Z,208.12
2022-07-25T08:06:56.240Z,230.62
2022-07-25T08:07:56.231Z,225
2022-07-25T08:08:56.208Z,196.88
2022-07-25T08:09:56.203Z,208.12
2022-07-25T08:10:56.191Z,219.38
2022-07-25T08:11:56.247Z,225
2022-07-25T08:12:57.161Z,247.5
2022-07-25T08:13:56.138Z,264.38
2022-07-25T08:14:56.135Z,270
2022-07-25T08:15:56.134Z,264.38
2022-07-25T08:16:56.108Z,241.88
2022-07-25T08:17:56.100Z,236.25
2022-07-25T08:18:56.092Z,225
2022-07-25T08:19:56.088Z,208.12
2022-07-25T08:20:56.073Z,202.5
2022-07-25T08:21:56.104Z,208.12
2022-07-25T08:22:56.084Z,196.88
2022-07-25T08:23:56.040Z,191.25
2022-07-25T08:24:56.022Z,196.88
2022-07-25T08:25:56.036Z,168.75
2022-07-25T08:26:56.016Z,247.5
2022-07-25T08:27:55.996Z,264.38
2022-07-25T08:28:55.979Z,253.12
2022-07-25T08:29:55.983Z,241.88
2022-07-25T08:30:55.980Z,258.75
2022-07-25T08:31:55.952Z,270
2022-07-25T08:32:55.967Z,258.75
2022-07-25T08:33:55.932Z,264.38
2022-07-25T08:34:55.920Z,264.38
2022-07-25T08:35:55.917Z,275.62
2022-07-25T08:36:55.926Z,275.62
2022-07-25T08:37:55.899Z,281.25
2022-07-25T08:38:55.911Z,281.25
2022-07-25T08:39:55.885Z,281.25
2022-07-25T08:40:55.870Z,275.62
2022-07-25T08:41:55.846Z,292.5
2022-07-25T08:42:55.844Z,298.12
2022-07-25T08:43:55.841Z,303.75
2022-07-25T08:44:55.824Z,292.5
2022-07-25T08:45:55.879Z,298.12
2022-07-25T08:46:55.807Z,298.12
2022-07-25T08:47:55.788Z,292.5
2022-07-25T08:48:55.790Z,281.25
2022-07-25T08:49:55.764Z,292.5
2022-07-25T08:50:55.782Z,286.88
2022-07-25T08:51:55.751Z,292.5
2022-07-25T08:52:55.824Z,281.25
2022-07-25T08:53:55.734Z,298.12
2022-07-25T08:54:55.721Z,298.12
2022-07-25T08:55:55.704Z,320.62
2022-07-25T08:56:55.709Z,320.62
2022-07-25T08:57:55.688Z,309.38
2022-07-25T08:58:55.677Z,331.88
2022-07-25T08:59:55.666Z,320.62
2022-07-25T09:00:55.682Z,315
2022-07-25T09:01:55.655Z,315
2022-07-25T09:02:55.645Z,264.38
2022-07-25T09:03:55.631Z,343.12
2022-07-25T09:04:55.632Z,343.12
2022-07-25T09:05:55.605Z,348.75
2022-07-25T09:06:55.634Z,365.62
2022-07-25T09:07:55.627Z,365.62
2022-07-25T09:08:55.590Z,360
2022-07-25T09:09:55.564Z,343.12
2022-07-25T09:10:55.573Z,331.88
2022-07-25T09:11:55.545Z,331.88
2022-07-25T09:12:55.555Z,365.62
2022-07-25T09:13:56.557Z,371.25
2022-07-25T09:14:55.740Z,360
2022-07-25T09:15:55.500Z,348.75
2022-07-25T09:16:55.499Z,331.88
2022-07-25T09:17:55.483Z,343.12
2022-07-25T09:18:55.467Z,348.75
2022-07-25T09:19:55.475Z,365.62
2022-07-25T09:20:55.491Z,337.5
2022-07-25T09:21:55.449Z,354.38
2022-07-25T09:22:55.429Z,399.38
2022-07-25T09:23:55.430Z,410.62
2022-07-25T09:24:55.432Z,421.88
2022-07-25T09:25:55.984Z,421.88
2022-07-25T09:26:55.385Z,405
2022-07-25T09:27:55.375Z,382.5
2022-07-25T09:28:55.391Z,337.5
2022-07-25T09:29:55.370Z,320.62
2022-07-25T09:30:55.389Z,281.25
2022-07-25T09:31:55.333Z,270
2022-07-25T09:32:55.357Z,253.12
2022-07-25T09:33:55.320Z,253.12
2022-07-25T09:34:55.313Z,236.25
2022-07-25T09:35:55.301Z,230.62
2022-07-25T09:36:55.294Z,365.62
2022-07-25T09:37:55.277Z,331.88
2022-07-25T09:38:55.275Z,354.38
2022-07-25T09:39:55.325Z,393.75
2022-07-25T09:40:55.256Z,388.12
2022-07-25T09:41:55.242Z,410.62
2022-07-25T09:42:55.236Z,405
2022-07-25T09:43:55.229Z,416.25
2022-07-25T09:44:55.248Z,399.38
2022-07-25T09:45:55.213Z,427.5
2022-07-25T09:46:55.195Z,410.62
2022-07-25T09:47:55.189Z,393.75
2022-07-25T09:48:55.177Z,393.75
2022-07-25T09:49:55.189Z,399.38
2022-07-25T09:50:55.175Z,388.12
2022-07-25T09:51:55.152Z,371.25
2022-07-25T09:52:55.145Z,354.38
2022-07-25T09:53:55.119Z,337.5
2022-07-25T09:54:55.206Z,348.75
2022-07-25T09:55:55.100Z,360
2022-07-25T09:56:55.107Z,382.5
2022-07-25T09:57:55.101Z,393.75
2022-07-25T09:58:55.074Z,360
2022-07-25T09:59:55.064Z,405
2022-07-25T10:00:55.080Z,376.88
2022-07-25T10:01:55.048Z,343.12
2022-07-25T10:02:55.070Z,410.62
2022-07-25T10:03:55.042Z,433.12
2022-07-25T10:04:55.021Z,421.88
2022-07-25T10:05:55.955Z,427.5
2022-07-25T10:06:55.008Z,416.25
2022-07-25T10:07:54.985Z,388.12
2022-07-25T10:08:54.992Z,393.75
2022-07-25T10:09:54.966Z,399.38
2022-07-25T10:10:54.965Z,371.25
2022-07-25T10:11:54.959Z,315
2022-07-25T10:12:54.937Z,303.75
2022-07-25T10:13:54.930Z,331.88
2022-07-25T10:14:54.926Z,360
2022-07-25T10:15:54.903Z,354.38
2022-07-25T10:16:54.900Z,303.75
2022-07-25T10:17:54.891Z,270
2022-07-25T10:18:54.894Z,241.88
2022-07-25T10:19:54.869Z,219.38
2022-07-25T10:20:54.856Z,219.38
2022-07-25T10:21:54.845Z,213.75
2022-07-25T10:22:54.850Z,208.12
2022-07-25T10:23:54.830Z,180
2022-07-25T10:24:54.832Z,168.75
2022-07-25T10:25:54.811Z,157.5
2022-07-25T10:26:54.796Z,151.88
2022-07-25T10:27:54.791Z,146.25
2022-07-25T10:28:55.045Z,146.25
2022-07-25T10:30:06.009Z,140.62
2022-07-25T10:30:54.791Z,140.62
2022-07-25T10:31:54.763Z,140.62
2022-07-25T10:32:55.809Z,140.62
2022-07-25T10:33:55.749Z,140.62
2022-07-25T10:34:55.720Z,140.62
2022-07-25T10:35:54.725Z,140.62
2022-07-25T10:36:54.698Z,146.25
2022-07-25T10:37:54.685Z,151.88
2022-07-25T10:38:54.711Z,163.12
2022-07-25T10:39:54.666Z,180
2022-07-25T10:40:54.660Z,191.25
2022-07-25T10:41:55.650Z,208.12
2022-07-25T10:42:54.639Z,213.75
2022-07-25T10:43:54.627Z,219.38
2022-07-25T10:44:54.627Z,213.75
2022-07-25T10:45:54.606Z,213.75
2022-07-25T10:46:54.594Z,202.5
2022-07-25T10:47:54.602Z,191.25
2022-07-25T10:48:54.579Z,180
2022-07-25T10:49:54.566Z,180
2022-07-25T10:50:54.556Z,180
2022-07-25T10:51:54.561Z,185.62
2022-07-25T10:52:54.543Z,185.62
2022-07-25T10:53:54.522Z,191.25
2022-07-25T10:54:54.509Z,191.25
2022-07-25T10:55:54.500Z,191.25
2022-07-25T10:56:54.541Z,191.25
2022-07-25T10:57:54.489Z,191.25
2022-07-25T10:58:54.483Z,196.88
2022-07-25T10:59:54.460Z,208.12
2022-07-25T11:00:54.459Z,219.38
2022-07-25T11:01:54.443Z,225
2022-07-25T11:02:54.438Z,241.88
2022-07-25T11:03:54.457Z,258.75
2022-07-25T11:04:54.417Z,579.38
2022-07-25T11:05:54.413Z,247.5
2022-07-25T11:06:54.414Z,421.88
2022-07-25T11:07:54.381Z,354.38
2022-07-25T11:08:54.366Z,736.88
2022-07-25T11:09:54.361Z,843.75
2022-07-25T11:10:54.350Z,506.25
2022-07-25T11:11:54.341Z,742.5
2022-07-25T11:12:54.362Z,472.5
2022-07-25T11:13:54.319Z,1102.5
2022-07-25T11:14:54.319Z,658.12
2022-07-25T11:15:54.297Z,472.5
2022-07-25T11:16:54.295Z,1035
2022-07-25T11:17:54.287Z,1293.75
2022-07-25T11:18:54.282Z,1136.25
2022-07-25T11:19:54.257Z,1355.62
2022-07-25T11:20:54.247Z,1417.5
2022-07-25T11:21:54.242Z,1496.25
2022-07-25T11:22:54.232Z,1445.62
2022-07-25T11:23:54.232Z,1265.62
2022-07-25T11:24:54.208Z,1153.12
2022-07-25T11:25:54.199Z,984.38
2022-07-25T11:26:54.201Z,663.75
2022-07-25T11:27:54.173Z,517.5
2022-07-25T11:28:54.169Z,427.5
2022-07-25T11:29:54.159Z,444.38
2022-07-25T11:30:54.154Z,405
2022-07-25T11:31:54.133Z,343.12
2022-07-25T11:32:54.123Z,326.25
2022-07-25T11:33:54.113Z,376.88
2022-07-25T11:34:54.112Z,624.38
2022-07-25T11:35:54.102Z,630
2022-07-25T11:36:54.114Z,343.12
2022-07-25T11:37:54.080Z,309.38
2022-07-25T11:38:54.064Z,281.25
2022-07-25T11:39:54.059Z,275.62
2022-07-25T11:40:54.053Z,303.75
2022-07-25T11:41:54.070Z,348.75
2022-07-25T11:42:54.031Z,641.25
2022-07-25T11:43:54.020Z,866.25
2022-07-25T11:44:54.040Z,787.5
2022-07-25T11:45:54.003Z,815.62
2022-07-25T11:46:53.994Z,691.88
2022-07-25T11:47:53.984Z,455.62
2022-07-25T11:48:53.967Z,478.12
2022-07-25T11:49:53.960Z,331.88
2022-07-25T11:50:53.957Z,337.5
2022-07-25T11:51:53.948Z,286.88
2022-07-25T11:52:53.946Z,213.75
2022-07-25T11:53:53.928Z,185.62
2022-07-25T11:54:53.935Z,168.75
2022-07-25T11:55:53.903Z,151.88
2022-07-25T11:56:54.230Z,140.62
2022-07-25T11:57:53.884Z,135
2022-07-25T11:58:53.873Z,123.75
2022-07-25T11:59:53.862Z,118.12
2022-07-25T12:00:54.528Z,112.5
2022-07-25T12:01:53.956Z,106.88
2022-07-25T12:02:53.836Z,106.88
2022-07-25T12:03:53.823Z,118.12
2022-07-25T12:04:53.815Z,129.38
2022-07-25T12:05:53.804Z,146.25
2022-07-25T12:06:53.790Z,157.5
2022-07-25T12:07:53.785Z,157.5
2022-07-25T12:08:53.778Z,157.5
2022-07-25T12:09:53.772Z,157.5
2022-07-25T12:10:53.748Z,151.88
2022-07-25T12:11:53.750Z,146.25
2022-07-25T12:12:53.729Z,146.25
2022-07-25T12:13:53.716Z,135
2022-07-25T12:14:53.718Z,123.75
2022-07-25T12:15:53.695Z,118.12
2022-07-25T12:16:53.688Z,112.5
2022-07-25T12:17:53.678Z,106.88
2022-07-25T12:18:53.691Z,106.88
2022-07-25T12:19:53.672Z,118.12
2022-07-25T12:20:53.645Z,129.38
2022-07-25T12:21:53.640Z,135
2022-07-25T12:22:53.641Z,140.62
2022-07-25T12:23:53.620Z,140.62
2022-07-25T12:24:53.628Z,146.25
2022-07-25T12:25:53.605Z,146.25
2022-07-25T12:26:53.587Z,151.88
2022-07-25T12:27:53.578Z,157.5
2022-07-25T12:28:53.563Z,163.12
2022-07-25T12:29:53.565Z,174.38
2022-07-25T12:30:53.561Z,191.25
2022-07-25T12:31:53.546Z,208.12
2022-07-25T12:32:53.537Z,225
2022-07-25T12:33:53.593Z,241.88
2022-07-25T12:34:53.504Z,270
2022-07-25T12:35:53.490Z,292.5
2022-07-25T12:36:53.488Z,354.38
2022-07-25T12:37:53.478Z,343.12
2022-07-25T12:38:53.479Z,399.38
2022-07-25T12:39:53.454Z,416.25
2022-07-25T12:40:53.454Z,438.75
2022-07-25T12:41:53.438Z,371.25
2022-07-25T12:42:53.435Z,303.75
2022-07-25T12:43:53.413Z,450
2022-07-25T12:44:53.402Z,585
2022-07-25T12:45:53.403Z,466.88
2022-07-25T12:46:53.384Z,888.75
2022-07-25T12:47:53.377Z,1192.5
2022-07-25T12:48:53.361Z,1237.5
2022-07-25T12:49:53.357Z,1226.25
2022-07-25T12:50:53.340Z,1226.25
2022-07-25T12:51:53.333Z,1018.12
2022-07-25T12:52:53.322Z,877.5
2022-07-25T12:53:53.317Z,624.38
2022-07-25T12:54:53.321Z,939.38
2022-07-25T12:55:53.298Z,1130.62
2022-07-25T12:56:53.280Z,309.38
2022-07-25T12:57:53.280Z,1006.88
2022-07-25T12:58:53.286Z,1237.5
2022-07-25T12:59:53.257Z,1209.38
2022-07-25T13:00:53.245Z,945
2022-07-25T13:01:53.248Z,534.38
2022-07-25T13:02:53.226Z,253.12
2022-07-25T13:03:53.224Z,225
2022-07-25T13:04:53.235Z,236.25
2022-07-25T13:05:53.199Z,275.62
2022-07-25T13:06:53.190Z,298.12
2022-07-25T13:07:53.188Z,309.38
2022-07-25T13:08:53.175Z,315
2022-07-25T13:09:53.160Z,360
2022-07-25T13:10:53.169Z,298.12
2022-07-25T13:11:53.147Z,405
2022-07-25T13:12:53.127Z,399.38
2022-07-25T13:13:53.120Z,399.38
2022-07-25T13:14:53.156Z,416.25